Aérodrome :
LOGIN :

S'inscrire | Disclaimer

   EN    FR    IT 

 










Légende :    VFR   VFR Marginal   IFR   IFR Intensif   IFR Très Intensif
Visi : 
Plafond : 
>= 8 km
>= 3000ft
5 à 8 km
1000 à 3000 ft
1500m à 5 km
500 à 1000 ft
800 à 1500m
200 à 500 ft
< 800m
< 200 ft
Symboles :   Orages  Brouillard  Fortes neiges  Fortes précipitations  Vent > 20 kt
SIGMETs :   Divers  Orages  Givrage  Turbulence  Onde Orograph.  Cendres Volcan.






- Altitude de l'aérodrome : 65 ft
- Code IATA : PMO


LICJ - Palermo Punta Raisi

DERNIER METAR :
  • 170220Z 35006KT 310V010 9999 SCT040 11/02 Q1020

METARs EXPIRÉS :
  • 170150Z 36005KT 320V030 9999 FEW050 11/01 Q1020
  • 170120Z 36006KT 9999 SCT040 11/02 Q1020
  • 170050Z 01007KT 9999 FEW040 11/02 Q1020
  • 170020Z 03007KT 350V070 9999 FEW040 11/02 Q1020
  • 162350Z 09006KT 9999 FEW045 09/01 Q1020

TAF TAF LICJ
Valide du 17 à 00h jusqu'au 18 à 00h UTC


162300Z 1700/1724 02013KT 9999 SCT030
BECMG 1700/1702 VRB05KT
BECMG 1705/1707 20015KT
BECMG 1712/1714 28020G30KT
TEMPO 1712/1718 RA BKN014
TEMPO 1718/1724 SHRA



MET'MAP, la Météo Aéronautique d'un coup d'oeil ! - Copyright ORBIFLY Décembre 2007 - Disclaimer

ORBIFLY MET'MAP TEAM :

Programmation & Développement : Alexandra Zaïnal
Sur une idée originale de : Baudouin d'Aumeries
Assistance à la programmation : Marc-Olivier Méhu
Soutien technique & logistique : Manuel Goepfert

Contact : metmap@orbifly.com




SOURCES & CREDITS :

   NOAA